Time;durP1;ratioP1;P1;durP2;ratioP2;P2;SDS_P1;SDS_P2;PMS_P1;PMS_P2;Temp;Humidity;BMP_temperature;BMP_pressure;BME280_temperature;BME280_humidity;BME280_pressure;Samples;Min_cycle;Max_cycle;Signal;HPM_P1;HPM_P2
2022/04/01 00:00:03;;;;;;;17.53;14.57;;;;;;;;;;5090685;28;20452;-77
2022/04/01 00:02:30;;;;;;;18.20;15.30;;;;;;;;;;5091153;28;20439;-76
2022/04/01 00:04:59;;;;;;;15.70;13.57;;;;;;;;;;5091908;28;20549;-79
2022/04/01 00:07:26;;;;;;;15.83;14.10;;;;;;;;;;5091407;28;21013;-77
2022/04/01 00:09:53;;;;;;;16.40;13.87;;;;;;;;;;5091021;28;20451;-79
2022/04/01 00:12:20;;;;;;;15.97;14.23;;;;;;;;;;5090489;28;20456;-79
2022/04/01 00:14:47;;;;;;;17.00;13.57;;;;;;;;;;5090735;28;20467;-81
2022/04/01 00:17:14;;;;;;;18.07;15.13;;;;;;;;;;5089443;28;20452;-77
2022/04/01 00:19:41;;;;;;;17.73;14.73;;;;;;;;;;5091110;28;20498;-78
2022/04/01 00:22:09;;;;;;;20.43;16.13;;;;;;;;;;5091163;28;20448;-78
2022/04/01 00:24:36;;;;;;;17.07;13.97;;;;;;;;;;5090778;28;20470;-78
2022/04/01 00:27:03;;;;;;;15.10;13.50;;;;;;;;;;5090374;28;20496;-77
2022/04/01 00:29:30;;;;;;;16.77;13.43;;;;;;;;;;5090371;28;20451;-78
2022/04/01 00:32:00;;;;;;;17.83;14.13;;;;;;;;;;5090471;28;20462;-76
2022/04/01 00:34:27;;;;;;;16.70;14.30;;;;;;;;;;5090240;28;20464;-78
2022/04/01 00:36:54;;;;;;;17.90;14.70;;;;;;;;;;5090321;28;20439;-76
2022/04/01 00:39:23;;;;;;;15.40;12.97;;;;;;;;;;5090219;28;20437;-76
2022/04/01 00:41:51;;;;;;;15.20;13.50;;;;;;;;;;5089977;28;20447;-76
2022/04/01 00:44:19;;;;;;;15.63;12.30;;;;;;;;;;5089966;28;20441;-78
2022/04/01 00:46:46;;;;;;;15.23;12.83;;;;;;;;;;5089863;28;20522;-76
2022/04/01 00:49:14;;;;;;;16.73;13.57;;;;;;;;;;5090096;28;20436;-76
2022/04/01 00:51:43;;;;;;;14.60;13.03;;;;;;;;;;5090357;28;20501;-77
2022/04/01 00:54:10;;;;;;;17.73;14.53;;;;;;;;;;5090288;28;20470;-78
2022/04/01 00:56:39;;;;;;;14.83;12.90;;;;;;;;;;5090097;28;20439;-78
2022/04/01 00:59:08;;;;;;;15.43;13.17;;;;;;;;;;5090305;28;20530;-78
2022/04/01 01:01:35;;;;;;;14.67;12.53;;;;;;;;;;5090815;28;20452;-77
2022/04/01 01:04:02;;;;;;;14.30;12.80;;;;;;;;;;5089945;28;20540;-76
2022/04/01 01:06:30;;;;;;;15.00;12.17;;;;;;;;;;5090083;28;20475;-77
2022/04/01 01:08:57;;;;;;;14.60;12.63;;;;;;;;;;5090561;28;20466;-76
2022/04/01 01:11:25;;;;;;;14.40;11.57;;;;;;;;;;5090137;28;20851;-77
2022/04/01 01:13:54;;;;;;;13.47;12.07;;;;;;;;;;5090925;28;20456;-78
2022/04/01 01:16:21;;;;;;;14.77;12.43;;;;;;;;;;5091136;28;21211;-76
2022/04/01 01:18:59;;;;;;;13.10;11.80;;;;;;;;;;5090943;28;20490;-78
2022/04/01 01:21:26;;;;;;;13.53;12.10;;;;;;;;;;5089908;28;20447;-78
2022/04/01 01:23:55;;;;;;;12.47;11.27;;;;;;;;;;5090564;28;20463;-79
2022/04/01 01:26:23;;;;;;;15.77;13.93;;;;;;;;;;5090266;28;20993;-77
2022/04/01 01:28:50;;;;;;;14.57;12.23;;;;;;;;;;5092939;28;20432;-77
2022/04/01 01:31:17;;;;;;;13.70;12.20;;;;;;;;;;5093795;28;20873;-76
2022/04/01 01:33:44;;;;;;;14.73;12.80;;;;;;;;;;5093640;28;20554;-76
2022/04/01 01:36:12;;;;;;;13.60;12.00;;;;;;;;;;5095027;28;20443;-77
2022/04/01 01:38:39;;;;;;;14.67;11.83;;;;;;;;;;5099401;28;20443;-77
2022/04/01 01:41:06;;;;;;;13.87;12.40;;;;;;;;;;5093649;28;20796;-75
2022/04/01 01:43:34;;;;;;;13.10;11.70;;;;;;;;;;5093052;28;20479;-77
2022/04/01 01:46:01;;;;;;;15.20;12.47;;;;;;;;;;5093497;28;20436;-77
2022/04/01 01:48:28;;;;;;;13.37;11.40;;;;;;;;;;5093587;28;20886;-76
2022/04/01 01:56:27;;;;;;;15.40;12.83;;;;;;;;;;5066870;28;20423;-77
2022/04/01 01:58:55;;;;;;;18.00;14.87;;;;;;;;;;5093149;28;20858;-76
2022/04/01 02:01:22;;;;;;;14.60;12.17;;;;;;;;;;5093027;28;20448;-77
2022/04/01 02:03:51;;;;;;;14.43;12.93;;;;;;;;;;5092973;28;20459;-78
2022/04/01 02:06:21;;;;;;;17.80;13.77;;;;;;;;;;5081193;28;20879;-78
2022/04/01 02:08:50;;;;;;;15.50;13.23;;;;;;;;;;5076642;28;20453;-78
2022/04/01 02:11:17;;;;;;;16.40;14.40;;;;;;;;;;5076130;28;21109;-77
2022/04/01 02:13:45;;;;;;;15.17;12.37;;;;;;;;;;5074861;28;20552;-77
2022/04/01 02:16:14;;;;;;;13.93;12.43;;;;;;;;;;5072901;28;20445;-77
2022/04/01 02:18:41;;;;;;;15.03;13.03;;;;;;;;;;5072177;28;20488;-78
2022/04/01 02:21:10;;;;;;;14.40;12.90;;;;;;;;;;5072401;28;20467;-77
2022/04/01 02:23:38;;;;;;;15.77;13.33;;;;;;;;;;5072612;28;20467;-77
2022/04/01 02:26:05;;;;;;;15.70;13.20;;;;;;;;;;5072898;28;20448;-76
2022/04/01 02:28:32;;;;;;;16.17;14.47;;;;;;;;;;5078326;28;20440;-75
2022/04/01 02:30:59;;;;;;;14.87;13.37;;;;;;;;;;5072545;28;20476;-77
2022/04/01 02:33:28;;;;;;;15.23;13.00;;;;;;;;;;5072173;28;20476;-76
2022/04/01 02:35:57;;;;;;;15.23;13.50;;;;;;;;;;5073052;28;20532;-78
2022/04/01 02:38:25;;;;;;;15.10;13.40;;;;;;;;;;5072384;28;20437;-76
2022/04/01 02:40:52;;;;;;;15.23;13.57;;;;;;;;;;5071803;28;20441;-77
2022/04/01 02:43:19;;;;;;;16.57;14.80;;;;;;;;;;5072632;28;20464;-77
2022/04/01 02:45:48;;;;;;;15.33;12.93;;;;;;;;;;5072339;28;20990;-77
2022/04/01 02:48:15;;;;;;;17.20;14.97;;;;;;;;;;5071694;28;21032;-77
2022/04/01 02:50:43;;;;;;;15.97;13.00;;;;;;;;;;5072425;28;20483;-78
2022/04/01 02:53:11;;;;;;;16.20;14.17;;;;;;;;;;5072158;28;20795;-78
2022/04/01 02:55:38;;;;;;;16.10;13.50;;;;;;;;;;5071716;28;20448;-77
2022/04/01 02:58:06;;;;;;;15.30;13.57;;;;;;;;;;5071888;28;20472;-78
2022/04/01 03:00:33;;;;;;;16.93;13.30;;;;;;;;;;5071851;28;20834;-77
2022/04/01 03:03:01;;;;;;;17.23;14.13;;;;;;;;;;5071178;28;21031;-79
2022/04/01 03:05:32;;;;;;;14.63;13.10;;;;;;;;;;5077935;28;20519;-77
2022/04/01 03:08:00;;;;;;;15.10;13.00;;;;;;;;;;5091814;28;20511;-76
2022/04/01 03:10:30;;;;;;;14.80;12.97;;;;;;;;;;5092013;28;20451;-76
2022/04/01 03:12:57;;;;;;;14.33;12.30;;;;;;;;;;5091475;28;20451;-77
2022/04/01 03:15:25;;;;;;;18.30;13.63;;;;;;;;;;5092448;28;20451;-78
2022/04/01 03:17:52;;;;;;;14.63;13.03;;;;;;;;;;5094369;28;20527;-77
2022/04/01 03:20:19;;;;;;;15.07;12.63;;;;;;;;;;5092651;28;20448;-77
2022/04/01 03:22:46;;;;;;;16.13;14.53;;;;;;;;;;5091696;28;20447;-78
2022/04/01 03:25:16;;;;;;;14.30;12.83;;;;;;;;;;5091789;28;20477;-78
2022/04/01 03:27:43;;;;;;;16.07;13.57;;;;;;;;;;5091878;28;20480;-77
2022/04/01 03:30:11;;;;;;;14.80;13.20;;;;;;;;;;5091806;28;20428;-77
2022/04/01 03:32:38;;;;;;;14.40;12.70;;;;;;;;;;5091740;28;20497;-78
2022/04/01 03:35:06;;;;;;;15.77;14.07;;;;;;;;;;5091492;28;20502;-78
2022/04/01 03:37:33;;;;;;;15.57;13.90;;;;;;;;;;5088571;28;20961;-76
2022/04/01 03:40:01;;;;;;;15.63;13.57;;;;;;;;;;5087178;28;20440;-77
2022/04/01 03:42:30;;;;;;;15.67;12.80;;;;;;;;;;5091544;28;20494;-77
2022/04/01 03:44:58;;;;;;;17.30;14.07;;;;;;;;;;5092230;28;20471;-77
2022/04/01 03:47:28;;;;;;;16.30;14.10;;;;;;;;;;5085644;28;20487;-77
2022/04/01 03:49:56;;;;;;;15.87;13.97;;;;;;;;;;5091430;28;20455;-76
2022/04/01 03:52:25;;;;;;;15.53;13.97;;;;;;;;;;5091047;28;21002;-77
2022/04/01 03:54:55;;;;;;;18.60;15.83;;;;;;;;;;5090879;28;20521;-77
2022/04/01 03:57:24;;;;;;;15.80;14.10;;;;;;;;;;5091261;28;20440;-78
2022/04/01 03:59:55;;;;;;;16.43;14.40;;;;;;;;;;5091268;28;20915;-78
2022/04/01 04:02:22;;;;;;;20.57;16.30;;;;;;;;;;5079846;28;20874;-76
2022/04/01 04:04:50;;;;;;;21.20;15.97;;;;;;;;;;5082653;28;20462;-79
2022/04/01 04:07:18;;;;;;;18.20;15.30;;;;;;;;;;5080053;28;20483;-77
2022/04/01 04:09:45;;;;;;;16.37;14.37;;;;;;;;;;5082849;28;20572;-77
2022/04/01 04:12:13;;;;;;;17.93;15.63;;;;;;;;;;5080812;28;20472;-75
2022/04/01 04:14:41;;;;;;;17.80;15.63;;;;;;;;;;5087670;28;20858;-78
2022/04/01 04:17:14;;;;;;;17.60;15.47;;;;;;;;;;5091296;28;20451;-78
2022/04/01 04:19:46;;;;;;;17.97;15.30;;;;;;;;;;5090799;28;20448;-76
2022/04/01 04:22:14;;;;;;;18.80;16.53;;;;;;;;;;5089023;28;20493;-77
2022/04/01 04:24:43;;;;;;;18.50;14.50;;;;;;;;;;5073288;28;20498;-77
2022/04/01 04:27:11;;;;;;;18.50;16.10;;;;;;;;;;5090628;28;20483;-77
2022/04/01 04:29:43;;;;;;;18.80;16.27;;;;;;;;;;5091109;28;20547;-77
2022/04/01 04:32:13;;;;;;;18.50;14.80;;;;;;;;;;5083406;28;20924;-76
2022/04/01 04:34:45;;;;;;;16.23;14.50;;;;;;;;;;5076139;28;20456;-76
2022/04/01 04:37:13;;;;;;;16.43;14.57;;;;;;;;;;5090133;28;20444;-76
2022/04/01 04:39:40;;;;;;;15.27;13.67;;;;;;;;;;5087209;28;20870;-77
2022/04/01 04:42:09;;;;;;;16.30;14.30;;;;;;;;;;5090507;28;20807;-77
2022/04/01 04:44:37;;;;;;;15.10;13.20;;;;;;;;;;5089899;28;20604;-77
2022/04/01 04:47:05;;;;;;;14.20;12.70;;;;;;;;;;5090363;28;20444;-78
2022/04/01 04:49:34;;;;;;;15.37;13.77;;;;;;;;;;5090759;28;20538;-77
2022/04/01 04:52:02;;;;;;;14.90;13.37;;;;;;;;;;5090361;28;20938;-77
2022/04/01 04:54:29;;;;;;;13.77;12.37;;;;;;;;;;5102197;28;20487;-73
2022/04/01 04:56:56;;;;;;;14.60;13.20;;;;;;;;;;5098535;28;20938;-79
2022/04/01 04:59:23;;;;;;;13.90;12.50;;;;;;;;;;5094386;28;20467;-78
2022/04/01 05:01:54;;;;;;;13.60;12.30;;;;;;;;;;5092564;28;21041;-77
2022/04/01 05:04:29;;;;;;;12.97;11.77;;;;;;;;;;5094087;28;20467;-76
2022/04/01 05:07:03;;;;;;;12.27;11.07;;;;;;;;;;5077084;28;20922;-78
2022/04/01 05:09:36;;;;;;;13.00;11.70;;;;;;;;;;5097011;28;20862;-80
2022/04/01 05:12:04;;;;;;;12.77;11.57;;;;;;;;;;5097630;28;20443;-77
2022/04/01 05:14:33;;;;;;;13.37;12.07;;;;;;;;;;5095943;28;20464;-78
2022/04/01 05:17:03;;;;;;;12.80;11.50;;;;;;;;;;5095592;28;20455;-76
2022/04/01 05:19:31;;;;;;;10.77;9.77;;;;;;;;;;5094577;28;20439;-76
2022/04/01 05:22:03;;;;;;;10.80;9.80;;;;;;;;;;5094672;28;20946;-77
2022/04/01 05:24:34;;;;;;;9.83;8.93;;;;;;;;;;5094161;28;20447;-78
2022/04/01 05:27:03;;;;;;;11.47;10.37;;;;;;;;;;5094628;28;20922;-78
2022/04/01 05:29:32;;;;;;;11.20;10.00;;;;;;;;;;5095381;28;21009;-78
2022/04/01 05:32:02;;;;;;;9.97;9.07;;;;;;;;;;5095324;28;20439;-78
2022/04/01 05:34:34;;;;;;;11.23;9.47;;;;;;;;;;5097218;28;20779;-78
2022/04/01 05:37:03;;;;;;;10.67;9.70;;;;;;;;;;5094847;28;20535;-77
2022/04/01 05:39:31;;;;;;;10.27;9.30;;;;;;;;;;5096941;28;20710;-80
2022/04/01 05:41:58;;;;;;;12.43;11.23;;;;;;;;;;5096555;28;20522;-78
2022/04/01 05:44:26;;;;;;;14.80;12.63;;;;;;;;;;5097204;28;20463;-78
2022/04/01 05:46:55;;;;;;;10.60;9.60;;;;;;;;;;5094217;28;20446;-78
2022/04/01 05:49:23;;;;;;;13.50;12.03;;;;;;;;;;5085695;28;20479;-78
2022/04/01 05:51:50;;;;;;;15.40;12.83;;;;;;;;;;5095212;28;20450;-77
2022/04/01 05:54:19;;;;;;;13.53;11.70;;;;;;;;;;5094770;28;20471;-80
2022/04/01 05:56:47;;;;;;;14.47;11.87;;;;;;;;;;5095957;28;20961;-78
2022/04/01 05:59:16;;;;;;;13.80;12.33;;;;;;;;;;5095701;28;20447;-79
2022/04/01 06:01:45;;;;;;;16.43;12.30;;;;;;;;;;5095260;28;20452;-78
2022/04/01 06:04:33;;;;;;;15.20;13.10;;;;;;;;;;5097690;28;20501;-78
2022/04/01 06:07:02;;;;;;;16.00;13.33;;;;;;;;;;5054458;28;20484;-80
2022/04/01 06:09:35;;;;;;;14.90;12.23;;;;;;;;;;5077371;28;20486;-78
2022/04/01 06:12:02;;;;;;;16.53;14.73;;;;;;;;;;5077784;28;20444;-78
2022/04/01 06:14:37;;;;;;;20.20;14.83;;;;;;;;;;5078069;28;20534;-80
2022/04/01 06:17:08;;;;;;;16.03;13.30;;;;;;;;;;5076040;28;20448;-78
2022/04/01 06:19:36;;;;;;;16.60;12.90;;;;;;;;;;5074829;28;21041;-77
2022/04/01 06:22:04;;;;;;;15.20;12.90;;;;;;;;;;5075235;28;20454;-78
2022/04/01 06:24:41;;;;;;;17.73;13.03;;;;;;;;;;5074106;28;20456;-79
2022/04/01 06:27:09;;;;;;;18.07;13.03;;;;;;;;;;5075041;28;20431;-80
2022/04/01 06:29:38;;;;;;;18.00;14.27;;;;;;;;;;5074119;28;21131;-76
2022/04/01 06:32:06;;;;;;;18.87;15.43;;;;;;;;;;5074234;28;20490;-78
2022/04/01 06:34:51;;;;;;;16.97;14.47;;;;;;;;;;5073704;28;20456;-78
2022/04/01 06:37:23;;;;;;;17.93;14.07;;;;;;;;;;5073828;28;20446;-78
2022/04/01 06:39:59;;;;;;;17.87;14.20;;;;;;;;;;5074368;28;20476;-78
2022/04/01 06:42:28;;;;;;;16.80;13.53;;;;;;;;;;5074200;28;20460;-80
2022/04/01 06:44:55;;;;;;;19.40;14.87;;;;;;;;;;5075941;28;20454;-78
2022/04/01 06:47:22;;;;;;;16.90;13.43;;;;;;;;;;5077733;28;20476;-77
2022/04/01 06:49:49;;;;;;;19.57;15.10;;;;;;;;;;5073944;28;20483;-78
2022/04/01 06:52:16;;;;;;;19.70;14.47;;;;;;;;;;5074834;28;20447;-78
2022/04/01 06:54:46;;;;;;;19.40;16.33;;;;;;;;;;5073243;28;20468;-75
2022/04/01 06:57:15;;;;;;;19.13;15.57;;;;;;;;;;5073773;28;20449;-78
2022/04/01 06:59:42;;;;;;;17.80;14.90;;;;;;;;;;5074387;28;20472;-76
2022/04/01 07:02:09;;;;;;;21.20;15.97;;;;;;;;;;5075521;28;20450;-78
2022/04/01 07:04:36;;;;;;;19.20;15.03;;;;;;;;;;5074413;28;20483;-77
2022/04/01 07:07:04;;;;;;;23.17;16.07;;;;;;;;;;5099807;28;20477;-78
2022/04/01 07:09:31;;;;;;;23.83;16.80;;;;;;;;;;5097623;28;21034;-78
2022/04/01 07:12:01;;;;;;;17.37;15.23;;;;;;;;;;5094346;28;20478;-76
2022/04/01 07:14:31;;;;;;;18.77;15.53;;;;;;;;;;5095414;28;20520;-79
2022/04/01 07:16:58;;;;;;;18.10;14.70;;;;;;;;;;5095057;28;20648;-78
2022/04/01 07:19:25;;;;;;;18.00;13.67;;;;;;;;;;5095257;28;20800;-80
2022/04/01 07:21:52;;;;;;;17.53;14.47;;;;;;;;;;5093378;28;20521;-79
2022/04/01 07:24:19;;;;;;;19.73;16.10;;;;;;;;;;5093709;28;20453;-78
2022/04/01 07:26:47;;;;;;;17.90;14.80;;;;;;;;;;5093430;28;20438;-79
2022/04/01 07:29:14;;;;;;;17.07;14.17;;;;;;;;;;5093329;28;20868;-79
2022/04/01 07:34:32;;;;;;;19.90;15.83;;;;;;;;;;5093148;28;20465;-77
2022/04/01 07:36:59;;;;;;;22.37;17.77;;;;;;;;;;5098692;28;20841;-78
2022/04/01 07:39:26;;;;;;;22.10;17.00;;;;;;;;;;5108691;28;20495;-75
2022/04/01 07:41:53;;;;;;;30.70;23.70;;;;;;;;;;5108624;28;20439;-77
2022/04/01 07:44:20;;;;;;;22.60;17.13;;;;;;;;;;5109807;28;20442;-76
2022/04/01 07:46:49;;;;;;;16.40;14.37;;;;;;;;;;5110282;28;21013;-76
2022/04/01 07:49:16;;;;;;;20.00;15.13;;;;;;;;;;5109129;28;20505;-78
2022/04/01 07:51:44;;;;;;;20.03;16.07;;;;;;;;;;5108040;28;20435;-77
2022/04/01 07:54:11;;;;;;;20.17;16.30;;;;;;;;;;5095647;28;20470;-79
2022/04/01 07:56:40;;;;;;;20.27;16.80;;;;;;;;;;5097171;28;20458;-78
2022/04/01 07:59:07;;;;;;;21.27;17.10;;;;;;;;;;5095946;28;20446;-77
2022/04/01 08:01:35;;;;;;;19.90;16.47;;;;;;;;;;5095653;28;20446;-80
2022/04/01 08:04:03;;;;;;;20.43;16.43;;;;;;;;;;5096335;28;21065;-78
2022/04/01 08:06:30;;;;;;;19.10;15.87;;;;;;;;;;5080468;28;20449;-78
2022/04/01 08:08:58;;;;;;;19.33;16.60;;;;;;;;;;5073835;28;20478;-77
2022/04/01 08:11:25;;;;;;;18.17;15.13;;;;;;;;;;5075247;28;20550;-78
2022/04/01 08:13:52;;;;;;;20.93;15.93;;;;;;;;;;5074052;28;20483;-77
2022/04/01 08:16:19;;;;;;;18.17;15.63;;;;;;;;;;5073298;28;20627;-78
2022/04/01 08:18:46;;;;;;;16.70;14.80;;;;;;;;;;5072856;28;20954;-78
2022/04/01 08:21:15;;;;;;;20.37;16.70;;;;;;;;;;5072626;28;20448;-77
2022/04/01 08:23:43;;;;;;;20.40;17.07;;;;;;;;;;5072872;28;20877;-78
2022/04/01 08:26:11;;;;;;;20.13;17.00;;;;;;;;;;5072657;28;20482;-77
2022/04/01 08:28:38;;;;;;;19.73;16.00;;;;;;;;;;5073120;28;20490;-77
2022/04/01 08:31:05;;;;;;;18.37;15.43;;;;;;;;;;5074588;28;20435;-79
2022/04/01 08:33:32;;;;;;;22.13;16.70;;;;;;;;;;5077914;28;20466;-77
2022/04/01 08:35:59;;;;;;;16.67;14.90;;;;;;;;;;5072797;28;20447;-77
2022/04/01 08:38:28;;;;;;;17.50;15.43;;;;;;;;;;5075108;28;20458;-77
2022/04/01 08:40:55;;;;;;;18.37;15.40;;;;;;;;;;5077991;28;20854;-77
2022/04/01 08:43:27;;;;;;;18.53;15.33;;;;;;;;;;5083019;28;20973;-76
2022/04/01 08:45:54;;;;;;;17.70;14.90;;;;;;;;;;5083264;28;20502;-79
2022/04/01 08:48:21;;;;;;;16.17;13.90;;;;;;;;;;5085139;28;20451;-77
2022/04/01 08:50:48;;;;;;;20.87;13.73;;;;;;;;;;5085965;28;20462;-78
2022/04/01 08:53:15;;;;;;;16.03;14.07;;;;;;;;;;5078738;28;20477;-78
2022/04/01 08:55:47;;;;;;;15.47;13.67;;;;;;;;;;5077130;28;20482;-80
2022/04/01 08:58:16;;;;;;;17.80;13.87;;;;;;;;;;5076001;28;20989;-80
2022/04/01 09:00:44;;;;;;;15.67;13.97;;;;;;;;;;5076527;28;20468;-77
2022/04/01 09:03:12;;;;;;;16.30;13.57;;;;;;;;;;5076149;28;20494;-80
2022/04/01 09:05:39;;;;;;;15.53;13.07;;;;;;;;;;5084335;28;20447;-80
2022/04/01 09:08:07;;;;;;;17.00;14.07;;;;;;;;;;5095971;28;20571;-78
2022/04/01 09:13:29;;;;;;;16.27;13.50;;;;;;;;;;5125512;27;21050;-78
2022/04/01 09:15:56;;;;;;;18.93;14.80;;;;;;;;;;5109723;28;20468;-78
2022/04/01 09:18:33;;;;;;;17.63;14.67;;;;;;;;;;5110744;28;20934;-79
2022/04/01 09:21:01;;;;;;;17.40;13.60;;;;;;;;;;5110210;28;20616;-77
2022/04/01 09:23:28;;;;;;;18.87;14.00;;;;;;;;;;5110370;28;20467;-78
2022/04/01 09:25:55;;;;;;;14.73;12.60;;;;;;;;;;5109796;28;20430;-77
2022/04/01 09:28:26;;;;;;;15.23;13.53;;;;;;;;;;5109758;28;20420;-79
2022/04/01 09:31:02;;;;;;;14.07;12.57;;;;;;;;;;5110269;28;20438;-79
2022/04/01 09:33:46;;;;;;;15.73;14.00;;;;;;;;;;5109425;28;20925;-77
2022/04/01 09:36:14;;;;;;;15.37;12.90;;;;;;;;;;5109472;28;20454;-77
2022/04/01 09:38:51;;;;;;;15.70;12.63;;;;;;;;;;5110770;28;20474;-77
2022/04/01 09:41:19;;;;;;;14.70;13.20;;;;;;;;;;5109990;28;20429;-78
2022/04/01 09:43:46;;;;;;;13.27;11.80;;;;;;;;;;5109892;28;20532;-77
2022/04/01 09:46:24;;;;;;;13.83;12.43;;;;;;;;;;5108917;28;20458;-80
2022/04/01 09:48:56;;;;;;;14.43;12.27;;;;;;;;;;5109168;28;20448;-78
2022/04/01 09:51:23;;;;;;;17.30;11.43;;;;;;;;;;5109798;28;20472;-79
2022/04/01 09:53:53;;;;;;;13.90;12.33;;;;;;;;;;5109146;28;20996;-78
2022/04/01 09:56:21;;;;;;;12.37;10.50;;;;;;;;;;5109714;28;20536;-77
2022/04/01 09:58:48;;;;;;;12.83;10.03;;;;;;;;;;5109625;28;20890;-77
2022/04/01 10:01:16;;;;;;;10.00;9.00;;;;;;;;;;5109730;28;20440;-79
2022/04/01 10:03:44;;;;;;;9.87;9.00;;;;;;;;;;5109807;28;20449;-79
2022/04/01 10:06:11;;;;;;;12.10;10.40;;;;;;;;;;5110234;28;20436;-79
2022/04/01 10:08:39;;;;;;;10.37;9.20;;;;;;;;;;5111889;28;20533;-78
2022/04/01 10:11:06;;;;;;;12.10;9.20;;;;;;;;;;5109808;28;20962;-79
2022/04/01 10:13:34;;;;;;;10.93;8.90;;;;;;;;;;5109086;28;20534;-77
2022/04/01 10:16:01;;;;;;;9.60;8.00;;;;;;;;;;5109958;28;20577;-78
2022/04/01 10:18:29;;;;;;;10.40;9.00;;;;;;;;;;5109165;28;20450;-77
2022/04/01 10:21:00;;;;;;;10.13;9.13;;;;;;;;;;5109832;28;20442;-78
2022/04/01 10:23:28;;;;;;;9.83;8.83;;;;;;;;;;5103312;28;20850;-81
2022/04/01 10:25:59;;;;;;;10.07;9.07;;;;;;;;;;5096101;28;20557;-77
2022/04/01 10:28:27;;;;;;;12.03;8.60;;;;;;;;;;5096155;28;21051;-79
2022/04/01 10:30:54;;;;;;;8.07;7.37;;;;;;;;;;5095523;28;20443;-78
2022/04/01 10:33:23;;;;;;;7.00;6.33;;;;;;;;;;5094962;28;20487;-76
2022/04/01 10:35:50;;;;;;;8.00;7.20;;;;;;;;;;5095283;28;20625;-79
2022/04/01 10:38:20;;;;;;;7.40;6.73;;;;;;;;;;5095678;28;20446;-79
2022/04/01 10:40:50;;;;;;;6.90;6.30;;;;;;;;;;5094803;28;20473;-76
2022/04/01 10:43:18;;;;;;;6.97;6.40;;;;;;;;;;5094991;28;20992;-78
2022/04/01 10:45:58;;;;;;;6.50;6.00;;;;;;;;;;5094835;28;20448;-78
2022/04/01 10:54:01;;;;;;;6.37;5.87;;;;;;;;;;5094920;28;20782;-79
2022/04/01 10:56:33;;;;;;;7.30;6.60;;;;;;;;;;5095152;28;20871;-78
2022/04/01 10:59:04;;;;;;;6.77;6.27;;;;;;;;;;5094896;28;20431;-77
2022/04/01 11:01:31;;;;;;;7.23;6.53;;;;;;;;;;5095708;28;20438;-80
2022/04/01 11:04:02;;;;;;;7.80;7.13;;;;;;;;;;5094076;28;20452;-78
2022/04/01 11:06:29;;;;;;;7.60;6.90;;;;;;;;;;5094262;28;20473;-79
2022/04/01 11:08:56;;;;;;;7.60;7.00;;;;;;;;;;5094237;28;20436;-77
2022/04/01 11:11:25;;;;;;;7.20;6.63;;;;;;;;;;5094520;28;20845;-79
2022/04/01 11:14:05;;;;;;;7.30;6.80;;;;;;;;;;5094039;28;20477;-79
2022/04/01 11:16:48;;;;;;;7.47;6.87;;;;;;;;;;5094367;28;20455;-80
2022/04/01 11:19:15;;;;;;;7.73;7.07;;;;;;;;;;5094045;28;20455;-80
2022/04/01 11:21:43;;;;;;;7.87;7.27;;;;;;;;;;5093957;28;20811;-79
2022/04/01 11:24:23;;;;;;;8.77;7.97;;;;;;;;;;5093916;28;20574;-79
2022/04/01 11:26:52;;;;;;;7.93;7.33;;;;;;;;;;5093937;28;20463;-78
2022/04/01 11:29:20;;;;;;;8.03;7.30;;;;;;;;;;5094424;28;20443;-78
2022/04/01 11:31:47;;;;;;;8.80;8.00;;;;;;;;;;5093809;28;20446;-78
2022/04/01 11:34:14;;;;;;;8.50;7.90;;;;;;;;;;5093409;28;20459;-79
2022/04/01 11:36:42;;;;;;;7.50;6.80;;;;;;;;;;5093269;28;20451;-79
2022/04/01 11:39:10;;;;;;;7.57;6.87;;;;;;;;;;5093192;28;20876;-78
2022/04/01 11:41:47;;;;;;;8.03;7.43;;;;;;;;;;5093315;28;20467;-78
2022/04/01 11:44:16;;;;;;;7.10;6.50;;;;;;;;;;5092993;28;20470;-77
2022/04/01 11:46:50;;;;;;;7.07;6.47;;;;;;;;;;5095012;28;20452;-80
2022/04/01 11:49:17;;;;;;;7.30;6.70;;;;;;;;;;5094670;28;20450;-79
2022/04/01 11:51:44;;;;;;;8.60;7.80;;;;;;;;;;5093650;28;20458;-78
2022/04/01 11:54:11;;;;;;;9.57;8.70;;;;;;;;;;5093369;28;20493;-76
2022/04/01 11:56:38;;;;;;;8.73;8.03;;;;;;;;;;5093036;28;20443;-77
2022/04/01 11:59:07;;;;;;;9.00;8.30;;;;;;;;;;5093681;28;20490;-79
2022/04/01 12:01:54;;;;;;;8.80;7.97;;;;;;;;;;5093256;28;20449;-79
2022/04/01 12:04:27;;;;;;;8.53;7.73;;;;;;;;;;5092559;28;20471;-77
2022/04/01 12:09:38;;;;;;;7.17;6.47;;;;;;;;;;5093054;28;20472;-78
2022/04/01 12:12:07;;;;;;;7.67;7.07;;;;;;;;;;5092965;28;20496;-77
2022/04/01 12:14:35;;;;;;;7.13;6.53;;;;;;;;;;5093044;28;20478;-79
2022/04/01 12:17:07;;;;;;;9.03;8.33;;;;;;;;;;5093343;28;20452;-78
2022/04/01 12:19:34;;;;;;;10.30;9.33;;;;;;;;;;5092587;28;20450;-79
2022/04/01 12:22:01;;;;;;;8.67;7.87;;;;;;;;;;5092798;28;20445;-79
2022/04/01 12:24:30;;;;;;;9.47;8.67;;;;;;;;;;5092966;28;20476;-79
2022/04/01 12:26:59;;;;;;;9.60;8.87;;;;;;;;;;5093813;28;20817;-78
2022/04/01 12:29:26;;;;;;;10.30;9.40;;;;;;;;;;5093783;28;20537;-77
2022/04/01 12:31:55;;;;;;;10.23;9.43;;;;;;;;;;5093518;28;20448;-77
2022/04/01 12:34:23;;;;;;;10.73;9.63;;;;;;;;;;5093968;28;20486;-78
2022/04/01 12:36:59;;;;;;;10.23;9.37;;;;;;;;;;5093447;28;20941;-77
2022/04/01 12:39:26;;;;;;;10.37;9.37;;;;;;;;;;5093625;28;20441;-78
2022/04/01 12:41:54;;;;;;;10.63;9.73;;;;;;;;;;5093417;28;20829;-78
2022/04/01 12:44:24;;;;;;;10.43;9.53;;;;;;;;;;5093342;28;20483;-78
2022/04/01 12:46:51;;;;;;;10.00;9.20;;;;;;;;;;5092856;28;20446;-78
2022/04/01 12:49:19;;;;;;;11.27;10.27;;;;;;;;;;5093037;28;20470;-78
2022/04/01 12:51:51;;;;;;;11.90;10.70;;;;;;;;;;5093006;28;20991;-78
2022/04/01 12:54:27;;;;;;;10.90;9.90;;;;;;;;;;5092167;28;20491;-80
2022/04/01 12:56:54;;;;;;;12.90;11.70;;;;;;;;;;5093928;28;20484;-77
2022/04/01 12:59:22;;;;;;;12.33;11.20;;;;;;;;;;5092567;28;20450;-78
2022/04/01 13:01:57;;;;;;;13.63;12.53;;;;;;;;;;5093298;28;20483;-78
2022/04/01 13:04:24;;;;;;;12.07;10.97;;;;;;;;;;5093872;28;21039;-77
2022/04/01 13:07:07;;;;;;;12.40;11.30;;;;;;;;;;5093403;28;20449;-78
2022/04/01 13:09:43;;;;;;;11.77;10.63;;;;;;;;;;5092377;28;20532;-80
2022/04/01 13:12:10;;;;;;;12.03;11.00;;;;;;;;;;5092520;28;20496;-80
2022/04/01 13:14:37;;;;;;;12.07;10.97;;;;;;;;;;5092666;28;20459;-80
2022/04/01 13:17:11;;;;;;;11.67;10.50;;;;;;;;;;5093601;28;20450;-78
2022/04/01 13:19:38;;;;;;;12.13;10.93;;;;;;;;;;5092707;28;20445;-78
2022/04/01 13:22:08;;;;;;;12.77;11.57;;;;;;;;;;5093373;28;20526;-78
2022/04/01 13:24:36;;;;;;;12.00;10.90;;;;;;;;;;5094048;28;20486;-77
2022/04/01 13:27:04;;;;;;;12.20;11.00;;;;;;;;;;5093280;28;20450;-79
2022/04/01 13:29:31;;;;;;;13.00;11.17;;;;;;;;;;5092959;28;21005;-77
2022/04/01 13:31:58;;;;;;;13.80;12.40;;;;;;;;;;5092701;28;20449;-78
2022/04/01 13:34:25;;;;;;;11.93;10.73;;;;;;;;;;5093065;28;20527;-77
2022/04/01 13:36:52;;;;;;;12.73;11.50;;;;;;;;;;5094470;28;20469;-77
2022/04/01 13:39:20;;;;;;;13.87;12.57;;;;;;;;;;5094030;28;20469;-78
2022/04/01 13:41:47;;;;;;;14.43;13.03;;;;;;;;;;5093334;28;20452;-79
2022/04/01 13:44:14;;;;;;;13.87;11.87;;;;;;;;;;5092715;28;20467;-77
2022/04/01 13:46:41;;;;;;;12.97;11.40;;;;;;;;;;5092144;28;20447;-78
2022/04/01 13:49:09;;;;;;;16.20;13.67;;;;;;;;;;5093530;28;20841;-79
2022/04/01 13:51:36;;;;;;;13.07;11.80;;;;;;;;;;5093094;28;20506;-77
2022/04/01 13:54:03;;;;;;;13.70;12.50;;;;;;;;;;5092481;28;20539;-78
2022/04/01 13:56:32;;;;;;;13.40;12.10;;;;;;;;;;5092022;28;20516;-79
2022/04/01 13:59:02;;;;;;;12.80;11.60;;;;;;;;;;5094057;28;20788;-78
2022/04/01 14:01:29;;;;;;;14.07;12.43;;;;;;;;;;5098002;28;20461;-79
2022/04/01 14:03:56;;;;;;;14.40;13.10;;;;;;;;;;5096374;28;20509;-80
2022/04/01 14:06:23;;;;;;;14.63;13.23;;;;;;;;;;5096064;28;20446;-79
2022/04/01 14:08:50;;;;;;;14.60;13.20;;;;;;;;;;5096485;28;20450;-78
2022/04/01 14:11:17;;;;;;;14.87;13.37;;;;;;;;;;5095127;28;20442;-78
2022/04/01 14:13:45;;;;;;;14.90;13.30;;;;;;;;;;5095877;28;20710;-80
2022/04/01 14:16:13;;;;;;;14.80;13.30;;;;;;;;;;5095691;28;20472;-77
2022/04/01 14:18:40;;;;;;;16.03;14.43;;;;;;;;;;5096436;28;20434;-79
2022/04/01 14:21:07;;;;;;;15.87;14.27;;;;;;;;;;5095401;28;20449;-77
2022/04/01 14:23:35;;;;;;;17.40;15.70;;;;;;;;;;5095099;28;20466;-78
2022/04/01 14:26:04;;;;;;;16.87;15.10;;;;;;;;;;5095529;28;20868;-78
2022/04/01 14:28:32;;;;;;;16.63;15.03;;;;;;;;;;5095380;28;20499;-78
2022/04/01 14:31:01;;;;;;;16.60;15.00;;;;;;;;;;5095076;28;20533;-81
2022/04/01 14:33:28;;;;;;;17.87;16.07;;;;;;;;;;5094676;28;20504;-77
2022/04/01 14:35:55;;;;;;;17.70;15.90;;;;;;;;;;5095009;28;20815;-78
2022/04/01 14:38:22;;;;;;;16.63;15.00;;;;;;;;;;5095224;28;20508;-78
2022/04/01 14:40:49;;;;;;;17.70;16.00;;;;;;;;;;5094691;28;20504;-78
2022/04/01 14:43:16;;;;;;;17.60;15.77;;;;;;;;;;5094292;28;20501;-77
2022/04/01 14:45:43;;;;;;;17.23;15.53;;;;;;;;;;5094195;28;20468;-78
2022/04/01 14:48:12;;;;;;;15.87;14.23;;;;;;;;;;5094862;28;20502;-79